Time;durP1;ratioP1;P1;durP2;ratioP2;P2;SDS_P1;SDS_P2;PMS_P1;PMS_P2;Temp;Humidity;BMP_temperature;BMP_pressure;BME280_temperature;BME280_humidity;BME280_pressure;Samples;Min_cycle;Max_cycle;Signal;HPM_P1;HPM_P2
2023/04/15 00:00:37;;;;;;;4.63;2.27;;;5.00;99.90;;;;;;5050217;28;20279;-71
2023/04/15 00:03:04;;;;;;;2.43;1.77;;;4.50;99.90;;;;;;5052881;28;20177;-70
2023/04/15 00:05:30;;;;;;;3.27;1.70;;;5.00;99.90;;;;;;5052211;28;20185;-70
2023/04/15 00:07:57;;;;;;;4.03;2.10;;;5.00;99.90;;;;;;5052600;28;20275;-70
2023/04/15 00:10:23;;;;;;;4.70;2.20;;;;;;;;;;5052427;28;20261;-70
2023/04/15 00:12:49;;;;;;;3.73;1.97;;;4.90;99.90;;;;;;5052761;28;20188;-71
2023/04/15 00:15:15;;;;;;;4.23;2.20;;;5.00;99.90;;;;;;5052253;28;20173;-70
2023/04/15 00:17:41;;;;;;;5.03;2.20;;;5.00;99.90;;;;;;5052586;28;20185;-69
2023/04/15 00:20:08;;;;;;;5.90;2.60;;;5.00;99.90;;;;;;5052058;28;20273;-70
2023/04/15 00:22:33;;;;;;;5.03;2.40;;;5.00;99.90;;;;;;5052501;28;20192;-70
2023/04/15 00:24:59;;;;;;;5.37;2.43;;;5.00;99.90;;;;;;5052137;28;20185;-70
2023/04/15 00:27:25;;;;;;;8.27;2.30;;;5.10;99.90;;;;;;5052310;28;20208;-70
2023/04/15 00:29:50;;;;;;;5.63;2.30;;;5.00;99.90;;;;;;5052418;28;20173;-70
2023/04/15 00:32:16;;;;;;;4.63;2.63;;;5.00;99.90;;;;;;5051783;28;20178;-70
2023/04/15 00:34:41;;;;;;;5.40;2.13;;;5.10;99.90;;;;;;5052285;28;20173;-70
2023/04/15 00:37:09;;;;;;;3.97;2.30;;;5.20;99.90;;;;;;5052021;28;20231;-70
2023/04/15 00:39:34;;;;;;;7.40;2.63;;;5.00;99.90;;;;;;5052135;28;20205;-70
2023/04/15 00:42:01;;;;;;;3.37;2.13;;;5.00;99.90;;;;;;5051860;28;20207;-70
2023/04/15 00:44:27;;;;;;;6.73;2.13;;;5.80;99.90;;;;;;5052185;28;20185;-70
2023/04/15 00:46:53;;;;;;;5.23;2.50;;;4.90;99.90;;;;;;5051688;28;20181;-70
2023/04/15 00:49:19;;;;;;;7.17;2.40;;;4.90;99.90;;;;;;5051949;28;20210;-70
2023/04/15 00:51:45;;;;;;;4.80;2.40;;;;;;;;;;5051565;28;20255;-70
2023/04/15 00:54:11;;;;;;;6.63;2.37;;;4.90;99.90;;;;;;5051881;28;20208;-70
2023/04/15 00:56:38;;;;;;;7.67;2.27;;;4.90;99.90;;;;;;5051741;28;20219;-70
2023/04/15 00:59:07;;;;;;;5.17;2.13;;;4.90;99.90;;;;;;5050076;28;20229;-70
2023/04/15 01:01:34;;;;;;;5.80;2.00;;;4.90;99.90;;;;;;5051827;28;20223;-70
2023/04/15 01:04:01;;;;;;;4.73;2.40;;;5.00;99.90;;;;;;5051279;28;20177;-70
2023/04/15 01:06:27;;;;;;;6.57;2.20;;;4.90;99.90;;;;;;5051639;28;20186;-70
2023/04/15 01:08:53;;;;;;;6.57;2.60;;;5.00;99.90;;;;;;5051373;28;20165;-71
2023/04/15 01:11:19;;;;;;;5.77;2.07;;;;;;;;;;5051600;28;20181;-71
2023/04/15 01:13:46;;;;;;;4.17;2.20;;;4.90;99.90;;;;;;5051100;28;20295;-70
2023/04/15 01:16:13;;;;;;;5.27;2.60;;;4.90;99.90;;;;;;5051389;28;20169;-70
2023/04/15 01:18:39;;;;;;;4.07;2.43;;;4.90;99.90;;;;;;5051045;28;20193;-70
2023/04/15 01:21:06;;;;;;;7.40;2.60;;;4.70;99.90;;;;;;5051383;28;20182;-70
2023/04/15 01:23:35;;;;;;;5.00;2.33;;;4.80;99.90;;;;;;5051068;28;20181;-70
2023/04/15 01:26:02;;;;;;;6.27;2.33;;;4.90;99.90;;;;;;5048003;28;20196;-70
2023/04/15 01:28:28;;;;;;;3.33;2.30;;;4.80;99.90;;;;;;5051030;28;20177;-70
2023/04/15 01:31:06;;;;;;;5.03;2.10;;;4.80;99.90;;;;;;5049846;28;20191;-70
2023/04/15 01:33:33;;;;;;;3.27;1.60;;;;;;;;;;5051027;28;20207;-70
2023/04/15 01:35:58;;;;;;;4.83;2.20;;;4.70;99.90;;;;;;5051256;28;20180;-70
2023/04/15 01:38:26;;;;;;;3.70;1.93;;;4.80;99.90;;;;;;5051198;28;20558;-70
2023/04/15 01:40:52;;;;;;;6.10;1.70;;;4.90;99.90;;;;;;5050711;28;20209;-70
2023/04/15 01:43:18;;;;;;;4.93;1.57;;;3.70;99.90;;;;;;5051025;28;20180;-69
2023/04/15 01:45:44;;;;;;;4.93;2.00;;;4.90;99.90;;;;;;5050663;28;20576;-69
2023/04/15 01:48:11;;;;;;;5.57;1.97;;;;;;;;;;5050908;28;20184;-70
2023/04/15 01:50:37;;;;;;;3.00;1.90;;;4.90;99.90;;;;;;5050383;28;20173;-69
2023/04/15 01:53:03;;;;;;;7.00;1.50;;;4.90;99.90;;;;;;5050849;28;20314;-70
2023/04/15 01:55:29;;;;;;;6.97;1.80;;;5.00;99.90;;;;;;5050440;28;20180;-70
2023/04/15 01:57:55;;;;;;;7.20;1.90;;;3.80;99.90;;;;;;5049948;28;20271;-70
2023/04/15 02:00:21;;;;;;;5.27;1.93;;;4.90;99.90;;;;;;5050174;28;20370;-70
2023/04/15 02:02:47;;;;;;;8.43;1.70;;;4.90;99.90;;;;;;5050521;28;20173;-70
2023/04/15 02:05:13;;;;;;;4.93;1.80;;;4.90;99.90;;;;;;5050836;28;20663;-70
2023/04/15 02:07:39;;;;;;;5.03;1.83;;;4.90;99.90;;;;;;5050223;28;20173;-70
2023/04/15 02:10:05;;;;;;;11.73;2.33;;;4.80;99.90;;;;;;5050657;28;20181;-70
2023/04/15 02:12:30;;;;;;;6.57;2.13;;;4.80;99.90;;;;;;5050241;28;20173;-69
2023/04/15 02:14:56;;;;;;;5.93;1.97;;;4.80;99.90;;;;;;5050625;28;20260;-70
2023/04/15 02:17:21;;;;;;;4.73;2.10;;;4.70;99.90;;;;;;5050420;28;20222;-69
2023/04/15 02:19:48;;;;;;;2.43;1.70;;;4.70;99.90;;;;;;5050614;28;20687;-70
2023/04/15 02:22:17;;;;;;;5.40;2.00;;;4.70;99.90;;;;;;5048873;28;20173;-70
2023/04/15 02:24:44;;;;;;;3.97;1.70;;;4.60;99.90;;;;;;5050620;28;20226;-70
2023/04/15 02:27:14;;;;;;;6.43;2.07;;;4.70;99.90;;;;;;5050170;28;20173;-70
2023/04/15 02:29:39;;;;;;;7.67;1.90;;;4.60;99.90;;;;;;5074840;28;20960;-70
2023/04/15 02:32:06;;;;;;;4.37;1.97;;;4.60;99.90;;;;;;5050201;28;20256;-70
2023/04/15 02:34:32;;;;;;;2.93;1.90;;;4.60;99.90;;;;;;5048986;28;20177;-70
2023/04/15 02:36:58;;;;;;;5.77;1.80;;;4.20;99.90;;;;;;5050268;28;20185;-69
2023/04/15 02:39:23;;;;;;;7.30;2.40;;;4.60;99.90;;;;;;5049782;28;20253;-70
2023/04/15 02:41:52;;;;;;;5.00;2.40;;;4.30;99.90;;;;;;5049071;28;20192;-70
2023/04/15 02:44:22;;;;;;;7.53;3.00;;;4.50;99.90;;;;;;5049948;28;20181;-70
2023/04/15 02:46:51;;;;;;;7.13;2.57;;;4.50;99.90;;;;;;5050359;28;20181;-70
2023/04/15 02:49:17;;;;;;;7.40;2.43;;;4.40;99.90;;;;;;5049971;28;20185;-70
2023/04/15 02:51:44;;;;;;;4.17;2.17;;;4.50;99.90;;;;;;5050181;28;20169;-69
2023/04/15 02:54:09;;;;;;;4.87;2.43;;;4.60;99.90;;;;;;5049657;28;20181;-69
2023/04/15 02:56:35;;;;;;;8.37;2.07;;;4.50;99.90;;;;;;5050111;28;20196;-69
2023/04/15 02:59:00;;;;;;;7.57;2.10;;;4.50;99.90;;;;;;5049530;28;20256;-70
2023/04/15 03:01:26;;;;;;;2.73;1.73;;;4.50;99.90;;;;;;5050097;28;20209;-71
2023/04/15 03:03:52;;;;;;;3.97;1.90;;;4.60;99.90;;;;;;5049866;28;20184;-71
2023/04/15 03:06:17;;;;;;;6.30;1.90;;;4.50;99.90;;;;;;5049688;28;20235;-70
2023/04/15 03:08:43;;;;;;;6.10;1.90;;;4.50;99.90;;;;;;5051473;28;20177;-70
2023/04/15 03:11:08;;;;;;;10.03;2.10;;;4.40;99.90;;;;;;5053703;28;20652;-72
2023/04/15 03:13:34;;;;;;;4.27;1.83;;;4.40;99.90;;;;;;5053854;28;20264;-71
2023/04/15 03:16:00;;;;;;;6.33;2.03;;;4.80;99.90;;;;;;5053667;28;20177;-71
2023/04/15 03:18:25;;;;;;;4.70;1.80;;;4.40;99.90;;;;;;5053812;28;20684;-71
2023/04/15 03:20:51;;;;;;;7.77;1.97;;;;;;;;;;5053248;28;20213;-70
2023/04/15 03:23:17;;;;;;;5.17;1.80;;;4.30;99.90;;;;;;5053639;28;20185;-71
2023/04/15 03:25:44;;;;;;;4.87;1.87;;;4.20;99.90;;;;;;5053702;28;20192;-70
2023/04/15 03:28:09;;;;;;;5.63;2.00;;;4.20;99.90;;;;;;5052162;28;20192;-71
2023/04/15 03:30:35;;;;;;;3.17;1.80;;;3.40;99.90;;;;;;5053672;28;20181;-70
2023/04/15 03:33:00;;;;;;;6.73;2.00;;;4.10;99.90;;;;;;5053078;28;20230;-70
2023/04/15 03:35:26;;;;;;;5.67;1.90;;;4.10;99.90;;;;;;5053377;28;20311;-70
2023/04/15 03:37:52;;;;;;;7.80;2.00;;;4.30;99.90;;;;;;5053066;28;20192;-70
2023/04/15 03:40:17;;;;;;;5.33;1.97;;;4.30;99.90;;;;;;5053452;28;20307;-69
2023/04/15 03:42:43;;;;;;;4.20;1.97;;;4.30;99.90;;;;;;5052955;28;20185;-70
2023/04/15 03:45:09;;;;;;;4.37;1.83;;;4.20;99.90;;;;;;5053272;28;20189;-69
2023/04/15 03:47:35;;;;;;;6.00;2.10;;;4.30;99.90;;;;;;5052899;28;20234;-69
2023/04/15 03:50:00;;;;;;;3.87;1.80;;;4.20;99.90;;;;;;5053183;28;20276;-71
2023/04/15 03:52:26;;;;;;;4.27;2.50;;;4.00;99.90;;;;;;5052737;28;20177;-70
2023/04/15 03:54:51;;;;;;;10.27;2.17;;;4.30;99.90;;;;;;5052991;28;20307;-70
2023/04/15 03:57:17;;;;;;;4.17;2.00;;;4.20;99.90;;;;;;5053052;28;20181;-70
2023/04/15 03:59:43;;;;;;;3.50;2.17;;;4.20;99.90;;;;;;5052176;28;20259;-69
2023/04/15 04:02:08;;;;;;;4.17;2.20;;;4.20;99.90;;;;;;5052954;28;20192;-71
2023/04/15 04:04:34;;;;;;;4.73;2.10;;;4.00;99.90;;;;;;5052586;28;20223;-70
2023/04/15 04:06:59;;;;;;;4.63;1.87;;;4.20;99.90;;;;;;5052711;28;20684;-71
2023/04/15 04:09:25;;;;;;;5.77;2.17;;;4.10;99.90;;;;;;5052403;28;20181;-71
2023/04/15 04:11:50;;;;;;;7.67;2.40;;;4.20;99.90;;;;;;5051505;28;20195;-71
2023/04/15 04:14:16;;;;;;;4.83;2.53;;;4.00;99.90;;;;;;5050907;28;20561;-71
2023/04/15 04:16:42;;;;;;;9.57;2.70;;;3.90;99.90;;;;;;5052618;28;20185;-70
2023/04/15 04:19:08;;;;;;;4.00;2.13;;;4.10;99.90;;;;;;5051008;28;20243;-70
2023/04/15 04:21:33;;;;;;;5.33;2.20;;;4.10;99.90;;;;;;5051594;28;20173;-70
2023/04/15 04:23:59;;;;;;;5.63;2.60;;;4.00;99.90;;;;;;5052595;28;20174;-71
2023/04/15 04:26:25;;;;;;;10.03;3.60;;;4.00;99.90;;;;;;5052198;28;20283;-69
2023/04/15 04:28:50;;;;;;;6.40;3.40;;;4.00;99.90;;;;;;5052475;28;20213;-70
2023/04/15 04:31:16;;;;;;;7.20;3.07;;;4.00;99.90;;;;;;5052066;28;20254;-69
2023/04/15 04:33:42;;;;;;;6.53;2.60;;;4.00;99.90;;;;;;5052286;28;20667;-69
2023/04/15 04:36:08;;;;;;;9.97;3.83;;;;;;;;;;5051870;28;20200;-71
2023/04/15 04:38:34;;;;;;;11.13;3.33;;;4.10;99.90;;;;;;5052072;28;20180;-70
2023/04/15 04:40:59;;;;;;;6.73;2.40;;;4.00;99.90;;;;;;5051963;28;20220;-71
2023/04/15 04:43:26;;;;;;;8.97;2.90;;;;;;;;;;5052079;28;20613;-71
2023/04/15 04:45:51;;;;;;;10.53;2.67;;;4.00;99.90;;;;;;5052062;28;20189;-70
2023/04/15 04:48:17;;;;;;;6.30;2.53;;;3.90;99.90;;;;;;5051672;28;20643;-71
2023/04/15 04:50:44;;;;;;;6.33;2.10;;;4.00;99.90;;;;;;5052020;28;20196;-69
2023/04/15 04:53:09;;;;;;;4.43;2.27;;;4.00;99.90;;;;;;5051597;28;20231;-70
2023/04/15 04:55:35;;;;;;;5.97;2.13;;;3.90;99.90;;;;;;5051874;28;20546;-70
2023/04/15 04:58:02;;;;;;;5.43;2.10;;;4.00;99.90;;;;;;5051661;28;20191;-70
2023/04/15 05:00:28;;;;;;;7.57;2.40;;;4.00;99.90;;;;;;5046954;28;20256;-70
2023/04/15 05:02:54;;;;;;;5.27;2.30;;;4.10;99.90;;;;;;5052074;28;20195;-72
2023/04/15 05:05:19;;;;;;;6.93;2.60;;;4.30;99.90;;;;;;5051645;28;20272;-70
2023/04/15 05:07:46;;;;;;;10.23;3.07;;;4.00;99.90;;;;;;5051475;28;20176;-71
2023/04/15 05:10:13;;;;;;;6.13;3.03;;;3.90;99.90;;;;;;5051592;28;20205;-70
2023/04/15 05:12:39;;;;;;;6.73;2.77;;;;;;;;;;5050127;28;20200;-70
2023/04/15 05:15:05;;;;;;;5.13;2.90;;;4.00;99.90;;;;;;5051434;28;20181;-70
2023/04/15 05:17:33;;;;;;;7.53;3.00;;;4.10;99.90;;;;;;5051512;28;20178;-69
2023/04/15 05:19:59;;;;;;;10.23;2.83;;;4.00;99.90;;;;;;5050782;28;20228;-70
2023/04/15 05:22:25;;;;;;;4.60;2.80;;;4.20;99.90;;;;;;5050038;28;20200;-70
2023/04/15 05:24:51;;;;;;;5.27;2.70;;;4.10;99.90;;;;;;5051142;28;20313;-69
2023/04/15 05:27:17;;;;;;;9.30;2.90;;;4.00;99.90;;;;;;5051163;28;20639;-69
2023/04/15 05:29:43;;;;;;;11.77;3.00;;;4.20;99.90;;;;;;5050987;28;20281;-70
2023/04/15 05:32:10;;;;;;;12.40;3.50;;;;;;;;;;5051162;28;20217;-70
2023/04/15 05:34:36;;;;;;;7.27;3.07;;;4.10;99.90;;;;;;5050776;28;20189;-71
2023/04/15 05:37:02;;;;;;;4.53;2.80;;;4.20;99.90;;;;;;5051420;28;20550;-71
2023/04/15 05:39:27;;;;;;;6.23;3.13;;;4.10;99.90;;;;;;5050765;28;20755;-70
2023/04/15 05:41:53;;;;;;;6.80;2.90;;;4.20;99.90;;;;;;5049616;28;20275;-70
2023/04/15 05:44:19;;;;;;;9.60;3.43;;;4.10;99.90;;;;;;5050842;28;20178;-70
2023/04/15 05:46:44;;;;;;;8.33;3.63;;;4.10;99.90;;;;;;5050708;28;20184;-70
2023/04/15 05:49:10;;;;;;;11.30;3.57;;;4.10;99.90;;;;;;5050851;28;20189;-70
2023/04/15 05:51:36;;;;;;;7.27;3.33;;;3.90;99.90;;;;;;5050513;28;20300;-71
2023/04/15 05:54:02;;;;;;;7.77;3.20;;;4.40;99.90;;;;;;5051118;28;20190;-71
2023/04/15 05:56:27;;;;;;;9.17;3.37;;;4.30;99.90;;;;;;5050584;28;20177;-71
2023/04/15 05:58:53;;;;;;;6.40;3.03;;;4.20;99.90;;;;;;5047056;28;20214;-71
2023/04/15 06:01:19;;;;;;;7.00;3.17;;;4.20;99.90;;;;;;5046553;28;20577;-71
2023/04/15 06:03:47;;;;;;;6.93;2.97;;;;;;;;;;5050488;28;20622;-71
2023/04/15 06:06:14;;;;;;;23.37;3.90;;;4.50;99.90;;;;;;5050559;28;20188;-71
2023/04/15 06:08:40;;;;;;;6.63;3.37;;;4.20;99.90;;;;;;5049417;28;20183;-70
2023/04/15 06:11:06;;;;;;;9.70;3.67;;;4.20;99.90;;;;;;5049362;28;20177;-70
2023/04/15 06:13:31;;;;;;;8.90;3.83;;;4.20;99.90;;;;;;5050170;28;20185;-71
2023/04/15 06:15:57;;;;;;;7.17;3.17;;;4.20;99.90;;;;;;5050581;28;20177;-70
2023/04/15 06:18:23;;;;;;;6.27;3.17;;;4.30;99.90;;;;;;5050057;28;20223;-70
2023/04/15 06:20:48;;;;;;;7.20;3.40;;;4.40;99.90;;;;;;5050397;28;20212;-72
2023/04/15 06:23:14;;;;;;;5.30;3.27;;;4.40;99.90;;;;;;5050066;28;20181;-69
2023/04/15 06:25:40;;;;;;;7.23;3.37;;;4.50;99.90;;;;;;5050399;28;20177;-70
2023/04/15 06:28:05;;;;;;;6.93;3.77;;;5.00;99.90;;;;;;5050443;28;20173;-68
2023/04/15 06:30:31;;;;;;;6.90;3.90;;;;;;;;;;5050265;28;20175;-70
2023/04/15 06:32:57;;;;;;;11.50;4.23;;;5.10;99.90;;;;;;5049954;28;20181;-71
2023/04/15 06:35:23;;;;;;;8.03;4.03;;;5.00;99.90;;;;;;5050336;28;20531;-70
2023/04/15 06:37:48;;;;;;;4.50;2.87;;;5.10;99.90;;;;;;5050437;28;20169;-71
2023/04/15 06:40:14;;;;;;;7.73;3.23;;;5.00;99.90;;;;;;5049732;28;20296;-70
2023/04/15 06:42:40;;;;;;;6.03;2.87;;;5.20;99.90;;;;;;5050343;28;20329;-69
2023/04/15 06:45:07;;;;;;;7.57;2.90;;;5.10;99.90;;;;;;5053702;28;20235;-71
2023/04/15 06:47:33;;;;;;;9.53;4.37;;;;;;;;;;5054240;28;20230;-68
2023/04/15 06:49:59;;;;;;;6.90;4.13;;;5.40;99.90;;;;;;5053938;28;20548;-68
2023/04/15 06:52:24;;;;;;;15.13;7.77;;;5.80;99.90;;;;;;5054133;28;20174;-69
2023/04/15 06:54:50;;;;;;;27.03;6.67;;;5.80;99.90;;;;;;5053864;28;20181;-68
2023/04/15 06:57:16;;;;;;;9.83;4.67;;;5.90;99.90;;;;;;5053989;28;20187;-69
2023/04/15 06:59:42;;;;;;;11.50;5.10;;;5.80;99.90;;;;;;5044187;28;20731;-69
2023/04/15 07:02:12;;;;;;;6.57;3.20;;;6.30;99.90;;;;;;5053786;28;20180;-69
2023/04/15 07:04:38;;;;;;;5.43;3.53;;;;;;;;;;5053779;28;20177;-69
2023/04/15 07:07:04;;;;;;;4.40;3.00;;;6.30;99.90;;;;;;5053748;28;20185;-69
2023/04/15 07:09:31;;;;;;;8.67;3.03;;;6.60;99.90;;;;;;5053846;28;20227;-69
2023/04/15 07:11:56;;;;;;;4.53;2.50;;;5.80;99.90;;;;;;5053361;28;20315;-68
2023/04/15 07:14:22;;;;;;;5.63;2.73;;;7.00;99.90;;;;;;5053809;28;20642;-68
2023/04/15 07:16:48;;;;;;;6.50;2.97;;;7.10;99.90;;;;;;5053340;28;20250;-70
2023/04/15 07:19:13;;;;;;;6.20;2.53;;;7.30;99.90;;;;;;5053520;28;20555;-69
2023/04/15 07:21:39;;;;;;;4.37;2.80;;;7.40;99.90;;;;;;5053184;28;20189;-68
2023/04/15 07:24:05;;;;;;;6.83;2.17;;;7.50;99.90;;;;;;5053581;28;20181;-68
2023/04/15 07:26:31;;;;;;;6.43;2.10;;;7.50;99.90;;;;;;5053111;28;20192;-68
2023/04/15 07:28:56;;;;;;;6.07;2.30;;;7.50;99.90;;;;;;5053503;28;20189;-68
2023/04/15 07:31:22;;;;;;;4.07;2.07;;;7.60;99.90;;;;;;5053119;28;20285;-68
2023/04/15 07:33:48;;;;;;;7.63;2.03;;;7.70;99.90;;;;;;5053218;28;20184;-69
2023/04/15 07:36:14;;;;;;;6.00;2.43;;;8.00;99.90;;;;;;5053361;28;20181;-69
2023/04/15 07:38:39;;;;;;;8.67;1.97;;;8.00;99.90;;;;;;5052815;28;20178;-70
2023/04/15 07:41:05;;;;;;;6.17;2.13;;;8.10;99.90;;;;;;5053174;28;20269;-68
2023/04/15 07:43:31;;;;;;;3.20;1.73;;;8.10;99.90;;;;;;5052801;28;21561;-69
2023/04/15 07:45:56;;;;;;;4.37;1.97;;;8.20;99.90;;;;;;5053631;28;20196;-70
2023/04/15 07:48:22;;;;;;;4.30;2.60;;;8.50;99.90;;;;;;5052904;28;20193;-69
2023/04/15 07:50:47;;;;;;;8.30;2.70;;;8.60;99.90;;;;;;5053078;28;20691;-69
2023/04/15 07:53:13;;;;;;;4.90;2.40;;;9.00;99.90;;;;;;5052658;28;20177;-70
2023/04/15 07:55:39;;;;;;;3.97;1.97;;;;;;;;;;5051642;28;20307;-69
2023/04/15 07:58:05;;;;;;;5.10;1.77;;;9.30;99.90;;;;;;5052657;28;20173;-69
2023/04/15 08:00:31;;;;;;;4.07;1.83;;;9.30;99.90;;;;;;5042412;28;20224;-69
2023/04/15 08:02:58;;;;;;;5.40;1.20;;;9.50;99.90;;;;;;5052882;28;20181;-69
2023/04/15 08:05:24;;;;;;;3.63;1.10;;;9.40;99.90;;;;;;5052540;28;20189;-70
2023/04/15 08:07:50;;;;;;;7.20;1.77;;;9.50;99.90;;;;;;5052792;28;20188;-70
2023/04/15 08:10:16;;;;;;;2.67;1.00;;;9.60;99.90;;;;;;5052331;28;20587;-70
2023/04/15 08:12:42;;;;;;;3.60;1.27;;;7.60;99.90;;;;;;5052563;28;20181;-69
2023/04/15 08:15:08;;;;;;;2.90;0.90;;;10.50;99.90;;;;;;5052176;28;20188;-69
2023/04/15 08:17:34;;;;;;;5.07;1.10;;;13.20;99.90;;;;;;5052575;28;20185;-71
2023/04/15 08:19:59;;;;;;;4.75;1.10;;;13.30;99.90;;;;;;5052059;28;20215;-70
2023/04/15 08:22:26;;;;;;;4.03;1.13;;;13.60;99.90;;;;;;5052403;28;20608;-70
2023/04/15 08:24:52;;;;;;;5.10;1.40;;;14.10;99.90;;;;;;5052155;28;20671;-71
2023/04/15 08:27:17;;;;;;;4.85;1.45;;;14.10;99.90;;;;;;5052318;28;20177;-70
2023/04/15 08:29:44;;;;;;;5.78;1.27;;;14.60;99.90;;;;;;5052323;28;20196;-70
2023/04/15 08:32:10;;;;;;;6.82;1.20;;;15.10;99.90;;;;;;5052200;28;20174;-70
2023/04/15 08:34:35;;;;;;;5.95;1.55;;;15.10;99.90;;;;;;5052201;28;20648;-71
2023/04/15 08:37:01;;;;;;;7.78;1.73;;;15.50;99.90;;;;;;5051973;28;20608;-71
2023/04/15 08:39:27;;;;;;;8.45;1.52;;;14.80;99.90;;;;;;5052164;28;20205;-70
2023/04/15 08:42:01;;;;;;;6.32;1.77;;;16.00;99.90;;;;;;5051755;28;20628;-69
2023/04/15 08:44:30;;;;;;;5.90;1.60;;;15.80;99.90;;;;;;5052102;28;20184;-70
2023/04/15 08:46:59;;;;;;;4.10;1.38;;;16.20;99.90;;;;;;5051690;28;20216;-71
2023/04/15 08:49:27;;;;;;;5.63;1.60;;;16.70;99.90;;;;;;5051958;28;20185;-71
2023/04/15 08:51:55;;;;;;;5.60;1.20;;;16.60;99.90;;;;;;5051655;28;20211;-71
2023/04/15 08:54:21;;;;;;;7.25;1.77;;;17.10;99.90;;;;;;5051816;28;20173;-71
2023/04/15 08:56:47;;;;;;;6.70;1.38;;;17.60;99.90;;;;;;5051361;28;20185;-72
2023/04/15 08:59:15;;;;;;;6.40;1.38;;;17.70;99.90;;;;;;5051424;28;20225;-71
2023/04/15 09:01:41;;;;;;;6.88;1.60;;;17.70;99.90;;;;;;5051607;28;20199;-71
2023/04/15 09:04:07;;;;;;;6.28;1.80;;;17.80;99.90;;;;;;5050356;28;20181;-71
2023/04/15 09:06:33;;;;;;;6.85;1.90;;;17.60;99.90;;;;;;5051502;28;20286;-72
2023/04/15 09:08:59;;;;;;;5.88;1.42;;;17.50;99.90;;;;;;5051033;28;20173;-71
2023/04/15 09:11:25;;;;;;;10.77;1.50;;;17.40;99.90;;;;;;5051633;28;20180;-71
2023/04/15 09:13:51;;;;;;;7.72;1.70;;;18.10;99.90;;;;;;5051208;28;20208;-72
2023/04/15 09:16:17;;;;;;;4.43;1.23;;;18.00;99.90;;;;;;5051512;28;20181;-71
2023/04/15 09:18:43;;;;;;;5.68;1.60;;;18.40;99.90;;;;;;5051352;28;20189;-72
2023/04/15 09:21:13;;;;;;;3.45;1.30;;;17.60;99.90;;;;;;5051068;28;20217;-72
2023/04/15 09:23:53;;;;;;;6.80;1.50;;;17.70;99.90;;;;;;5050762;28;20185;-72
2023/04/15 09:26:18;;;;;;;3.47;1.30;;;16.20;99.90;;;;;;5051298;28;20281;-72
2023/04/15 09:28:44;;;;;;;4.80;1.50;;;15.10;99.90;;;;;;5050861;28;20424;-71
2023/04/15 09:31:10;;;;;;;5.97;1.30;;;15.10;99.90;;;;;;5051197;28;20181;-71
2023/04/15 09:33:52;;;;;;;12.13;1.63;;;14.10;99.90;;;;;;5050728;28;20304;-71
2023/04/15 09:36:18;;;;;;;5.80;1.73;;;15.80;99.90;;;;;;5050880;28;20662;-71
2023/04/15 09:38:56;;;;;;;5.28;1.60;;;15.90;99.90;;;;;;5050624;28;20186;-71
2023/04/15 09:41:23;;;;;;;6.57;1.30;;;14.90;99.90;;;;;;5050969;28;20196;-71
2023/04/15 09:43:48;;;;;;;4.30;1.70;;;14.40;99.90;;;;;;5050410;28;20725;-69
2023/04/15 09:46:14;;;;;;;6.75;1.80;;;14.40;99.90;;;;;;5050844;28;20185;-70
2023/04/15 09:48:39;;;;;;;6.03;1.50;;;15.20;99.90;;;;;;5049075;28;20652;-70
2023/04/15 09:51:05;;;;;;;5.82;1.30;;;16.20;99.90;;;;;;5050987;28;20242;-70
2023/04/15 09:53:33;;;;;;;3.20;1.38;;;17.40;99.90;;;;;;5050492;28;20532;-70
2023/04/15 09:56:01;;;;;;;6.28;1.45;;;19.00;99.90;;;;;;5050200;28;20251;-72
2023/04/15 09:58:27;;;;;;;5.30;1.45;;;19.40;99.90;;;;;;5050614;28;20177;-70
2023/04/15 10:00:55;;;;;;;4.80;1.30;;;19.40;99.90;;;;;;5050096;28;20260;-71
2023/04/15 10:03:21;;;;;;;2.33;1.08;;;19.80;99.90;;;;;;5050541;28;20208;-71
2023/04/15 10:05:50;;;;;;;5.85;1.40;;;19.70;99.90;;;;;;5050236;28;20271;-72
2023/04/15 10:08:18;;;;;;;7.15;1.52;;;18.20;99.90;;;;;;5050661;28;20271;-71
2023/04/15 10:10:46;;;;;;;7.13;1.55;;;17.80;99.90;;;;;;5048993;28;20644;-70
2023/04/15 10:13:21;;;;;;;5.00;1.45;;;17.00;99.90;;;;;;5042373;28;20227;-70
2023/04/15 10:15:54;;;;;;;7.43;1.75;;;16.40;99.90;;;;;;5049976;28;20175;-70
2023/04/15 10:18:22;;;;;;;6.38;1.30;;;15.40;99.90;;;;;;5050086;28;20652;-71
2023/04/15 10:20:48;;;;;;;4.22;1.50;;;;;;;;;;5049903;28;20216;-70
2023/04/15 10:23:14;;;;;;;5.10;1.33;;;15.70;99.90;;;;;;5042107;28;20215;-70
2023/04/15 10:25:40;;;;;;;8.80;1.52;;;15.60;99.90;;;;;;5050339;28;20583;-71
2023/04/15 10:28:07;;;;;;;3.67;1.40;;;15.80;99.90;;;;;;5050236;28;20173;-70
2023/04/15 10:30:33;;;;;;;5.47;1.33;;;15.70;99.90;;;;;;5049943;28;20276;-71
2023/04/15 10:33:02;;;;;;;6.75;1.40;;;15.80;99.90;;;;;;5050311;28;20256;-70
2023/04/15 10:35:29;;;;;;;4.60;1.30;;;16.70;99.90;;;;;;5048617;28;20200;-71
2023/04/15 10:37:55;;;;;;;5.70;1.25;;;;;;;;;;5050412;28;20177;-71
2023/04/15 10:40:30;;;;;;;4.22;1.35;;;16.60;99.90;;;;;;5050300;28;20205;-70
2023/04/15 10:43:00;;;;;;;8.02;1.60;;;15.20;99.90;;;;;;5045576;28;20202;-70
2023/04/15 10:45:35;;;;;;;7.18;1.52;;;14.80;99.90;;;;;;5049801;28;20200;-71
2023/04/15 10:48:03;;;;;;;6.22;1.60;;;15.00;99.90;;;;;;5047890;28;20185;-70
2023/04/15 10:50:31;;;;;;;3.72;1.20;;;17.50;99.90;;;;;;5049953;28;20228;-70
2023/04/15 10:52:57;;;;;;;4.95;1.52;;;17.30;99.90;;;;;;5050492;28;20249;-70
2023/04/15 10:55:25;;;;;;;5.93;1.60;;;17.90;99.90;;;;;;5050242;28;20173;-70
2023/04/15 10:57:53;;;;;;;4.03;1.15;;;17.80;99.90;;;;;;5049860;28;20177;-70
2023/04/15 11:00:20;;;;;;;6.55;1.30;;;19.20;99.90;;;;;;5048713;28;20251;-71
2023/04/15 11:02:56;;;;;;;2.33;1.02;;;19.10;99.90;;;;;;5049883;28;20174;-71
2023/04/15 11:05:42;;;;;;;5.65;1.50;;;21.00;99.90;;;;;;5049784;28;20188;-71
2023/04/15 11:08:12;;;;;;;4.50;1.17;;;20.90;99.90;;;;;;5047963;28;20648;-72
2023/04/15 11:10:37;;;;;;;4.97;1.20;;;21.30;99.90;;;;;;5049676;28;20185;-72
2023/04/15 11:13:04;;;;;;;4.55;1.30;;;20.10;99.90;;;;;;5049945;28;20184;-72
2023/04/15 11:15:30;;;;;;;5.25;1.55;;;20.10;99.90;;;;;;5049554;28;20185;-70
2023/04/15 11:18:12;;;;;;;2.85;1.05;;;20.10;99.90;;;;;;5049655;28;20222;-72
2023/04/15 11:20:40;;;;;;;5.60;1.33;;;19.50;99.90;;;;;;5049302;28;20259;-72
2023/04/15 11:23:06;;;;;;;4.35;1.10;;;19.20;99.90;;;;;;5050021;28;20188;-71
2023/04/15 11:25:33;;;;;;;5.13;1.45;;;18.50;99.90;;;;;;5049591;28;20180;-71
2023/04/15 11:28:00;;;;;;;6.15;1.45;;;17.80;99.90;;;;;;5049814;28;20173;-71
2023/04/15 11:30:29;;;;;;;5.80;1.25;;;17.20;99.90;;;;;;5050869;28;20177;-71
2023/04/15 11:32:59;;;;;;;4.10;1.13;;;17.90;99.90;;;;;;5052627;28;20265;-71
2023/04/15 11:35:24;;;;;;;4.18;1.08;;;19.30;99.90;;;;;;5053379;28;20173;-71
2023/04/15 11:37:50;;;;;;;4.38;1.38;;;20.60;99.90;;;;;;5053372;28;20551;-72
2023/04/15 11:40:22;;;;;;;4.65;1.50;;;20.00;99.90;;;;;;5054284;28;20232;-70
2023/04/15 11:43:17;;;;;;;3.15;1.10;;;20.00;99.90;;;;;;5053728;28;20612;-69
2023/04/15 11:45:56;;;;;;;4.70;1.10;;;21.40;99.90;;;;;;5051891;28;20235;-72
2023/04/15 11:48:27;;;;;;;3.05;1.10;;;20.10;99.90;;;;;;5053198;28;20173;-71
2023/04/15 11:50:58;;;;;;;3.28;1.15;;;18.20;99.90;;;;;;5052637;28;20219;-71
2023/04/15 11:53:37;;;;;;;3.75;1.35;;;18.00;99.90;;;;;;5053044;28;20181;-71
2023/04/15 11:56:02;;;;;;;3.38;1.15;;;17.40;99.90;;;;;;5052716;28;20678;-71
2023/04/15 11:58:29;;;;;;;3.85;1.60;;;16.90;99.90;;;;;;5052986;28;20181;-71
2023/04/15 12:00:57;;;;;;;2.40;1.38;;;16.90;99.90;;;;;;5050387;28;20242;-71
2023/04/15 12:03:36;;;;;;;7.68;1.70;;;16.70;99.90;;;;;;5052807;28;20176;-70
2023/04/15 12:06:23;;;;;;;4.45;1.67;;;16.50;99.90;;;;;;5052379;28;20249;-70
2023/04/15 12:08:57;;;;;;;4.97;1.70;;;16.20;99.90;;;;;;5046927;28;20185;-70
2023/04/15 12:11:25;;;;;;;4.97;1.35;;;16.00;99.90;;;;;;5052388;28;20185;-70
2023/04/15 12:13:54;;;;;;;4.07;1.20;;;16.30;99.90;;;;;;5052381;28;20196;-70
2023/04/15 12:16:20;;;;;;;4.28;1.45;;;16.60;99.90;;;;;;5052666;28;20227;-69
2023/04/15 12:18:50;;;;;;;3.08;1.20;;;19.80;99.90;;;;;;5052695;28;20691;-70
2023/04/15 12:21:18;;;;;;;4.35;1.10;;;19.70;99.90;;;;;;5052130;28;20217;-70
2023/04/15 12:23:55;;;;;;;4.97;1.60;;;19.00;99.90;;;;;;5052625;28;20185;-70
2023/04/15 12:26:29;;;;;;;3.08;1.35;;;18.40;99.90;;;;;;5052130;28;20216;-71
2023/04/15 12:29:02;;;;;;;4.15;1.40;;;18.60;99.90;;;;;;5052331;28;20644;-70
2023/04/15 12:31:28;;;;;;;4.07;1.42;;;18.00;99.90;;;;;;5052277;28;20652;-70
2023/04/15 12:33:58;;;;;;;2.78;1.20;;;17.40;99.90;;;;;;5052311;28;20173;-70
2023/04/15 12:36:24;;;;;;;3.53;1.30;;;17.10;99.90;;;;;;5051822;28;20211;-70
2023/04/15 12:38:50;;;;;;;2.80;1.20;;;16.70;99.90;;;;;;5052238;28;20668;-70
2023/04/15 12:41:15;;;;;;;5.28;1.55;;;16.40;99.90;;;;;;5051025;28;20699;-70
2023/04/15 12:43:43;;;;;;;3.25;1.02;;;16.20;99.90;;;;;;5050903;28;20177;-71
2023/04/15 12:46:09;;;;;;;5.10;1.17;;;16.70;99.90;;;;;;5051773;28;20185;-71
2023/04/15 12:48:35;;;;;;;3.70;1.10;;;18.40;99.90;;;;;;5052053;28;20207;-70
2023/04/15 12:51:01;;;;;;;2.53;1.20;;;19.70;99.90;;;;;;5051747;28;20199;-71
2023/04/15 12:53:27;;;;;;;3.72;1.42;;;20.50;99.90;;;;;;5051999;28;20259;-71
2023/04/15 12:55:53;;;;;;;4.93;1.25;;;20.80;99.90;;;;;;5051573;28;20600;-71